sensor_id;sensor_type;location;lat;lon;timestamp;P1;durP1;ratioP1;P2;durP2;ratioP2
84946;SDS011;75241;51.692;5.196;2024-03-08T00:00:40;34.35;;;18.30;;
84946;SDS011;75241;51.692;5.196;2024-03-08T00:03:07;38.55;;;19.30;;
84946;SDS011;75241;51.692;5.196;2024-03-08T00:05:35;35.95;;;19.30;;
84946;SDS011;75241;51.692;5.196;2024-03-08T00:08:00;37.13;;;18.55;;
84946;SDS011;75241;51.692;5.196;2024-03-08T00:10:26;37.05;;;19.00;;
84946;SDS011;75241;51.692;5.196;2024-03-08T00:12:53;35.15;;;19.85;;
84946;SDS011;75241;51.692;5.196;2024-03-08T00:15:19;30.75;;;18.73;;
84946;SDS011;75241;51.692;5.196;2024-03-08T00:17:45;33.15;;;18.85;;
84946;SDS011;75241;51.692;5.196;2024-03-08T00:20:11;33.20;;;17.48;;
84946;SDS011;75241;51.692;5.196;2024-03-08T00:25:04;32.70;;;17.40;;
84946;SDS011;75241;51.692;5.196;2024-03-08T00:27:30;37.50;;;19.20;;
84946;SDS011;75241;51.692;5.196;2024-03-08T00:29:56;32.53;;;19.23;;
84946;SDS011;75241;51.692;5.196;2024-03-08T00:32:25;34.20;;;18.20;;
84946;SDS011;75241;51.692;5.196;2024-03-08T00:34:52;38.00;;;20.08;;
84946;SDS011;75241;51.692;5.196;2024-03-08T00:37:19;34.90;;;19.88;;
84946;SDS011;75241;51.692;5.196;2024-03-08T00:39:48;35.58;;;19.50;;
84946;SDS011;75241;51.692;5.196;2024-03-08T00:42:15;36.35;;;18.83;;
84946;SDS011;75241;51.692;5.196;2024-03-08T00:44:41;33.88;;;17.80;;
84946;SDS011;75241;51.692;5.196;2024-03-08T00:47:06;30.33;;;17.23;;
84946;SDS011;75241;51.692;5.196;2024-03-08T00:49:32;35.20;;;19.30;;
84946;SDS011;75241;51.692;5.196;2024-03-08T00:51:58;33.50;;;19.05;;
84946;SDS011;75241;51.692;5.196;2024-03-08T00:54:23;33.20;;;17.83;;
84946;SDS011;75241;51.692;5.196;2024-03-08T00:56:49;34.58;;;18.95;;
84946;SDS011;75241;51.692;5.196;2024-03-08T00:59:14;35.08;;;18.23;;
84946;SDS011;75241;51.692;5.196;2024-03-08T01:01:40;33.65;;;18.92;;
84946;SDS011;75241;51.692;5.196;2024-03-08T01:04:06;33.97;;;17.88;;
84946;SDS011;75241;51.692;5.196;2024-03-08T01:06:32;29.70;;;17.48;;
84946;SDS011;75241;51.692;5.196;2024-03-08T01:08:58;30.20;;;17.05;;
84946;SDS011;75241;51.692;5.196;2024-03-08T01:11:24;31.90;;;18.80;;
84946;SDS011;75241;51.692;5.196;2024-03-08T01:13:49;31.58;;;19.17;;
84946;SDS011;75241;51.692;5.196;2024-03-08T01:16:15;30.98;;;17.88;;
84946;SDS011;75241;51.692;5.196;2024-03-08T01:18:42;33.90;;;18.55;;
84946;SDS011;75241;51.692;5.196;2024-03-08T01:21:08;32.90;;;18.52;;
84946;SDS011;75241;51.692;5.196;2024-03-08T01:23:33;29.02;;;18.38;;
84946;SDS011;75241;51.692;5.196;2024-03-08T01:26:00;27.58;;;18.30;;
84946;SDS011;75241;51.692;5.196;2024-03-08T01:28:27;31.83;;;18.95;;
84946;SDS011;75241;51.692;5.196;2024-03-08T01:30:53;33.65;;;18.25;;
84946;SDS011;75241;51.692;5.196;2024-03-08T01:33:24;29.13;;;16.58;;
84946;SDS011;75241;51.692;5.196;2024-03-08T01:35:54;32.50;;;18.58;;
84946;SDS011;75241;51.692;5.196;2024-03-08T01:38:20;29.67;;;17.35;;
84946;SDS011;75241;51.692;5.196;2024-03-08T01:40:49;32.97;;;17.65;;
84946;SDS011;75241;51.692;5.196;2024-03-08T01:45:44;25.17;;;17.02;;
84946;SDS011;75241;51.692;5.196;2024-03-08T01:48:10;31.92;;;18.48;;
84946;SDS011;75241;51.692;5.196;2024-03-08T01:50:37;33.20;;;16.80;;
84946;SDS011;75241;51.692;5.196;2024-03-08T01:53:04;30.38;;;16.52;;
84946;SDS011;75241;51.692;5.196;2024-03-08T01:55:30;30.27;;;17.50;;
84946;SDS011;75241;51.692;5.196;2024-03-08T01:57:56;31.60;;;19.50;;
84946;SDS011;75241;51.692;5.196;2024-03-08T02:00:23;32.47;;;18.75;;
84946;SDS011;75241;51.692;5.196;2024-03-08T02:02:51;33.30;;;18.88;;
84946;SDS011;75241;51.692;5.196;2024-03-08T02:05:19;30.55;;;17.38;;
84946;SDS011;75241;51.692;5.196;2024-03-08T02:07:45;31.48;;;19.17;;
84946;SDS011;75241;51.692;5.196;2024-03-08T02:10:11;30.85;;;17.95;;
84946;SDS011;75241;51.692;5.196;2024-03-08T02:12:37;26.23;;;16.80;;
84946;SDS011;75241;51.692;5.196;2024-03-08T02:15:03;31.08;;;19.20;;
84946;SDS011;75241;51.692;5.196;2024-03-08T02:17:31;30.98;;;17.67;;
84946;SDS011;75241;51.692;5.196;2024-03-08T02:19:58;31.63;;;17.48;;
84946;SDS011;75241;51.692;5.196;2024-03-08T02:22:26;27.75;;;17.70;;
84946;SDS011;75241;51.692;5.196;2024-03-08T02:24:53;34.03;;;18.85;;
84946;SDS011;75241;51.692;5.196;2024-03-08T02:27:26;31.25;;;19.33;;
84946;SDS011;75241;51.692;5.196;2024-03-08T02:29:54;26.40;;;16.77;;
84946;SDS011;75241;51.692;5.196;2024-03-08T02:32:23;28.85;;;17.67;;
84946;SDS011;75241;51.692;5.196;2024-03-08T02:34:49;32.53;;;16.83;;
84946;SDS011;75241;51.692;5.196;2024-03-08T02:37:14;29.55;;;18.98;;
84946;SDS011;75241;51.692;5.196;2024-03-08T02:39:43;31.52;;;18.05;;
84946;SDS011;75241;51.692;5.196;2024-03-08T02:42:09;27.67;;;17.33;;
84946;SDS011;75241;51.692;5.196;2024-03-08T02:44:34;32.03;;;19.25;;
84946;SDS011;75241;51.692;5.196;2024-03-08T02:47:00;29.45;;;19.42;;
84946;SDS011;75241;51.692;5.196;2024-03-08T02:49:25;34.47;;;20.40;;
84946;SDS011;75241;51.692;5.196;2024-03-08T02:51:52;29.17;;;17.88;;
84946;SDS011;75241;51.692;5.196;2024-03-08T02:54:18;32.03;;;18.15;;
84946;SDS011;75241;51.692;5.196;2024-03-08T02:56:44;34.15;;;18.10;;
84946;SDS011;75241;51.692;5.196;2024-03-08T02:59:15;34.50;;;18.77;;
84946;SDS011;75241;51.692;5.196;2024-03-08T03:01:42;33.53;;;19.05;;
84946;SDS011;75241;51.692;5.196;2024-03-08T03:04:08;33.60;;;20.05;;
84946;SDS011;75241;51.692;5.196;2024-03-08T03:06:34;33.65;;;18.48;;
84946;SDS011;75241;51.692;5.196;2024-03-08T03:09:00;35.25;;;19.83;;
84946;SDS011;75241;51.692;5.196;2024-03-08T03:11:26;28.73;;;17.40;;
84946;SDS011;75241;51.692;5.196;2024-03-08T03:13:52;34.25;;;19.35;;
84946;SDS011;75241;51.692;5.196;2024-03-08T03:16:20;32.85;;;19.55;;
84946;SDS011;75241;51.692;5.196;2024-03-08T03:18:46;33.47;;;18.92;;
84946;SDS011;75241;51.692;5.196;2024-03-08T03:21:12;35.45;;;19.83;;
84946;SDS011;75241;51.692;5.196;2024-03-08T03:23:38;30.55;;;17.67;;
84946;SDS011;75241;51.692;5.196;2024-03-08T03:26:08;36.58;;;19.52;;
84946;SDS011;75241;51.692;5.196;2024-03-08T03:28:34;34.38;;;20.48;;
84946;SDS011;75241;51.692;5.196;2024-03-08T03:30:59;34.38;;;20.90;;
84946;SDS011;75241;51.692;5.196;2024-03-08T03:33:25;35.13;;;21.30;;
84946;SDS011;75241;51.692;5.196;2024-03-08T03:35:51;33.10;;;19.45;;
84946;SDS011;75241;51.692;5.196;2024-03-08T03:38:19;34.67;;;19.65;;
84946;SDS011;75241;51.692;5.196;2024-03-08T03:40:48;32.85;;;20.85;;
84946;SDS011;75241;51.692;5.196;2024-03-08T03:43:17;33.67;;;19.70;;
84946;SDS011;75241;51.692;5.196;2024-03-08T03:45:43;32.97;;;20.08;;
84946;SDS011;75241;51.692;5.196;2024-03-08T03:48:08;35.35;;;20.05;;
84946;SDS011;75241;51.692;5.196;2024-03-08T03:50:34;35.97;;;21.17;;
84946;SDS011;75241;51.692;5.196;2024-03-08T03:53:00;35.67;;;21.58;;
84946;SDS011;75241;51.692;5.196;2024-03-08T03:55:27;36.75;;;20.33;;
84946;SDS011;75241;51.692;5.196;2024-03-08T03:57:53;39.08;;;21.48;;
84946;SDS011;75241;51.692;5.196;2024-03-08T04:00:19;36.65;;;20.20;;
84946;SDS011;75241;51.692;5.196;2024-03-08T04:02:45;35.75;;;20.58;;
84946;SDS011;75241;51.692;5.196;2024-03-08T04:05:11;35.67;;;19.92;;
84946;SDS011;75241;51.692;5.196;2024-03-08T04:07:37;33.75;;;20.30;;
84946;SDS011;75241;51.692;5.196;2024-03-08T04:10:04;40.47;;;21.00;;
84946;SDS011;75241;51.692;5.196;2024-03-08T04:12:31;41.40;;;22.92;;
84946;SDS011;75241;51.692;5.196;2024-03-08T04:14:57;35.25;;;20.63;;
84946;SDS011;75241;51.692;5.196;2024-03-08T04:17:23;36.90;;;21.88;;
84946;SDS011;75241;51.692;5.196;2024-03-08T04:19:51;38.88;;;21.60;;
84946;SDS011;75241;51.692;5.196;2024-03-08T04:22:17;36.13;;;20.55;;
84946;SDS011;75241;51.692;5.196;2024-03-08T04:24:44;37.92;;;21.98;;
84946;SDS011;75241;51.692;5.196;2024-03-08T04:29:36;34.90;;;19.50;;
84946;SDS011;75241;51.692;5.196;2024-03-08T04:32:04;35.00;;;21.38;;
84946;SDS011;75241;51.692;5.196;2024-03-08T04:34:33;36.70;;;21.65;;
84946;SDS011;75241;51.692;5.196;2024-03-08T04:37:02;33.83;;;19.95;;
84946;SDS011;75241;51.692;5.196;2024-03-08T04:39:29;37.78;;;22.05;;
84946;SDS011;75241;51.692;5.196;2024-03-08T04:41:56;42.42;;;21.20;;
84946;SDS011;75241;51.692;5.196;2024-03-08T04:44:25;35.65;;;20.58;;
84946;SDS011;75241;51.692;5.196;2024-03-08T04:46:50;36.80;;;21.42;;
84946;SDS011;75241;51.692;5.196;2024-03-08T04:49:16;36.55;;;20.95;;
84946;SDS011;75241;51.692;5.196;2024-03-08T04:51:41;39.92;;;21.48;;
84946;SDS011;75241;51.692;5.196;2024-03-08T04:54:07;39.42;;;22.23;;
84946;SDS011;75241;51.692;5.196;2024-03-08T04:56:32;38.28;;;21.38;;
84946;SDS011;75241;51.692;5.196;2024-03-08T04:58:58;37.80;;;22.60;;
84946;SDS011;75241;51.692;5.196;2024-03-08T05:01:24;38.85;;;21.65;;
84946;SDS011;75241;51.692;5.196;2024-03-08T05:03:49;36.53;;;21.10;;
84946;SDS011;75241;51.692;5.196;2024-03-08T05:06:16;41.00;;;22.70;;
84946;SDS011;75241;51.692;5.196;2024-03-08T05:08:41;36.05;;;23.40;;
84946;SDS011;75241;51.692;5.196;2024-03-08T05:11:07;39.75;;;22.33;;
84946;SDS011;75241;51.692;5.196;2024-03-08T05:13:33;34.92;;;20.10;;
84946;SDS011;75241;51.692;5.196;2024-03-08T05:15:59;39.28;;;22.90;;
84946;SDS011;75241;51.692;5.196;2024-03-08T05:18:25;39.17;;;21.90;;
84946;SDS011;75241;51.692;5.196;2024-03-08T05:20:53;38.63;;;22.38;;
84946;SDS011;75241;51.692;5.196;2024-03-08T05:23:18;38.38;;;23.70;;
84946;SDS011;75241;51.692;5.196;2024-03-08T05:25:44;36.38;;;21.33;;
84946;SDS011;75241;51.692;5.196;2024-03-08T05:28:12;39.95;;;23.05;;
84946;SDS011;75241;51.692;5.196;2024-03-08T05:30:38;42.83;;;22.77;;
84946;SDS011;75241;51.692;5.196;2024-03-08T05:33:03;38.80;;;21.70;;
84946;SDS011;75241;51.692;5.196;2024-03-08T05:35:29;37.35;;;21.55;;
84946;SDS011;75241;51.692;5.196;2024-03-08T05:37:55;41.83;;;21.95;;
84946;SDS011;75241;51.692;5.196;2024-03-08T05:40:20;37.75;;;19.02;;
84946;SDS011;75241;51.692;5.196;2024-03-08T05:42:45;38.45;;;20.98;;
84946;SDS011;75241;51.692;5.196;2024-03-08T05:45:11;38.05;;;22.02;;
84946;SDS011;75241;51.692;5.196;2024-03-08T05:47:38;38.05;;;22.98;;
84946;SDS011;75241;51.692;5.196;2024-03-08T05:50:04;43.47;;;23.70;;
84946;SDS011;75241;51.692;5.196;2024-03-08T05:52:32;38.78;;;22.52;;
84946;SDS011;75241;51.692;5.196;2024-03-08T05:54:58;36.00;;;21.08;;
84946;SDS011;75241;51.692;5.196;2024-03-08T05:57:23;38.55;;;22.65;;
84946;SDS011;75241;51.692;5.196;2024-03-08T05:59:49;41.00;;;21.85;;
84946;SDS011;75241;51.692;5.196;2024-03-08T06:02:14;42.13;;;21.73;;
84946;SDS011;75241;51.692;5.196;2024-03-08T06:04:44;36.78;;;23.38;;
84946;SDS011;75241;51.692;5.196;2024-03-08T06:07:11;39.20;;;21.67;;
84946;SDS011;75241;51.692;5.196;2024-03-08T06:09:37;37.35;;;20.58;;
84946;SDS011;75241;51.692;5.196;2024-03-08T06:12:03;36.42;;;22.05;;
84946;SDS011;75241;51.692;5.196;2024-03-08T06:14:29;41.63;;;22.92;;
84946;SDS011;75241;51.692;5.196;2024-03-08T06:16:55;42.58;;;23.25;;
84946;SDS011;75241;51.692;5.196;2024-03-08T06:19:20;40.25;;;22.88;;
84946;SDS011;75241;51.692;5.196;2024-03-08T06:21:46;36.58;;;20.70;;
84946;SDS011;75241;51.692;5.196;2024-03-08T06:24:11;36.92;;;21.27;;
84946;SDS011;75241;51.692;5.196;2024-03-08T06:26:37;41.03;;;22.35;;
84946;SDS011;75241;51.692;5.196;2024-03-08T06:29:03;37.67;;;21.27;;
84946;SDS011;75241;51.692;5.196;2024-03-08T06:31:31;39.17;;;22.25;;
84946;SDS011;75241;51.692;5.196;2024-03-08T06:33:57;39.88;;;23.40;;
84946;SDS011;75241;51.692;5.196;2024-03-08T06:36:23;42.33;;;22.27;;
84946;SDS011;75241;51.692;5.196;2024-03-08T06:38:48;40.83;;;22.05;;
84946;SDS011;75241;51.692;5.196;2024-03-08T06:41:14;37.40;;;21.55;;
84946;SDS011;75241;51.692;5.196;2024-03-08T06:43:46;39.80;;;20.70;;
84946;SDS011;75241;51.692;5.196;2024-03-08T06:46:14;37.80;;;22.33;;
84946;SDS011;75241;51.692;5.196;2024-03-08T06:48:40;39.38;;;22.77;;
84946;SDS011;75241;51.692;5.196;2024-03-08T06:51:05;40.10;;;21.58;;
84946;SDS011;75241;51.692;5.196;2024-03-08T06:53:31;43.40;;;23.10;;
84946;SDS011;75241;51.692;5.196;2024-03-08T06:55:57;37.90;;;21.23;;
84946;SDS011;75241;51.692;5.196;2024-03-08T06:58:23;35.10;;;22.30;;
84946;SDS011;75241;51.692;5.196;2024-03-08T07:00:49;40.08;;;22.10;;
84946;SDS011;75241;51.692;5.196;2024-03-08T07:03:18;38.97;;;22.60;;
84946;SDS011;75241;51.692;5.196;2024-03-08T07:05:44;39.42;;;20.90;;
84946;SDS011;75241;51.692;5.196;2024-03-08T07:08:09;39.03;;;21.63;;
84946;SDS011;75241;51.692;5.196;2024-03-08T07:10:35;40.40;;;21.02;;
84946;SDS011;75241;51.692;5.196;2024-03-08T07:13:02;34.80;;;21.73;;
84946;SDS011;75241;51.692;5.196;2024-03-08T07:15:28;37.80;;;21.73;;
84946;SDS011;75241;51.692;5.196;2024-03-08T07:17:53;40.83;;;22.08;;
84946;SDS011;75241;51.692;5.196;2024-03-08T07:20:19;38.65;;;21.55;;
84946;SDS011;75241;51.692;5.196;2024-03-08T07:22:45;39.90;;;21.77;;
84946;SDS011;75241;51.692;5.196;2024-03-08T07:25:17;38.63;;;21.98;;
84946;SDS011;75241;51.692;5.196;2024-03-08T07:27:53;39.45;;;21.38;;
84946;SDS011;75241;51.692;5.196;2024-03-08T07:30:20;40.78;;;21.73;;
84946;SDS011;75241;51.692;5.196;2024-03-08T07:33:05;39.17;;;20.25;;
84946;SDS011;75241;51.692;5.196;2024-03-08T07:35:32;32.38;;;19.52;;
84946;SDS011;75241;51.692;5.196;2024-03-08T07:37:58;32.67;;;20.02;;
84946;SDS011;75241;51.692;5.196;2024-03-08T07:40:25;39.85;;;21.25;;
84946;SDS011;75241;51.692;5.196;2024-03-08T07:42:50;40.10;;;20.83;;
84946;SDS011;75241;51.692;5.196;2024-03-08T07:45:16;38.17;;;21.77;;
84946;SDS011;75241;51.692;5.196;2024-03-08T07:47:42;40.88;;;21.13;;
84946;SDS011;75241;51.692;5.196;2024-03-08T07:50:08;37.30;;;20.73;;
84946;SDS011;75241;51.692;5.196;2024-03-08T07:52:37;38.72;;;22.85;;
84946;SDS011;75241;51.692;5.196;2024-03-08T07:55:02;39.60;;;20.88;;
84946;SDS011;75241;51.692;5.196;2024-03-08T07:57:29;37.05;;;20.75;;
84946;SDS011;75241;51.692;5.196;2024-03-08T07:59:55;36.53;;;19.08;;
84946;SDS011;75241;51.692;5.196;2024-03-08T08:02:20;38.65;;;20.83;;
84946;SDS011;75241;51.692;5.196;2024-03-08T08:04:46;36.28;;;20.50;;
84946;SDS011;75241;51.692;5.196;2024-03-08T08:07:11;33.85;;;20.48;;
84946;SDS011;75241;51.692;5.196;2024-03-08T08:09:37;36.72;;;20.48;;
84946;SDS011;75241;51.692;5.196;2024-03-08T08:12:03;38.13;;;20.63;;
84946;SDS011;75241;51.692;5.196;2024-03-08T08:14:29;32.83;;;20.25;;
84946;SDS011;75241;51.692;5.196;2024-03-08T08:16:54;41.33;;;20.17;;
84946;SDS011;75241;51.692;5.196;2024-03-08T08:19:22;33.67;;;19.17;;
84946;SDS011;75241;51.692;5.196;2024-03-08T08:21:47;39.20;;;20.65;;
84946;SDS011;75241;51.692;5.196;2024-03-08T08:24:13;34.03;;;21.02;;
84946;SDS011;75241;51.692;5.196;2024-03-08T08:26:39;36.30;;;21.15;;
84946;SDS011;75241;51.692;5.196;2024-03-08T08:29:05;33.30;;;18.23;;
84946;SDS011;75241;51.692;5.196;2024-03-08T08:31:31;37.90;;;19.75;;
84946;SDS011;75241;51.692;5.196;2024-03-08T08:33:58;35.92;;;20.88;;
84946;SDS011;75241;51.692;5.196;2024-03-08T08:36:24;35.28;;;20.75;;
84946;SDS011;75241;51.692;5.196;2024-03-08T08:38:49;34.75;;;20.25;;
84946;SDS011;75241;51.692;5.196;2024-03-08T08:41:15;37.08;;;21.20;;
84946;SDS011;75241;51.692;5.196;2024-03-08T08:43:42;35.25;;;20.05;;
84946;SDS011;75241;51.692;5.196;2024-03-08T08:46:09;36.13;;;20.50;;
84946;SDS011;75241;51.692;5.196;2024-03-08T08:48:41;34.95;;;21.05;;
84946;SDS011;75241;51.692;5.196;2024-03-08T08:51:06;33.53;;;19.38;;
84946;SDS011;75241;51.692;5.196;2024-03-08T08:53:37;38.65;;;20.77;;
84946;SDS011;75241;51.692;5.196;2024-03-08T08:56:08;35.67;;;18.30;;
84946;SDS011;75241;51.692;5.196;2024-03-08T08:58:38;31.75;;;18.33;;
84946;SDS011;75241;51.692;5.196;2024-03-08T09:01:07;32.38;;;17.27;;
84946;SDS011;75241;51.692;5.196;2024-03-08T09:03:35;32.63;;;17.48;;
84946;SDS011;75241;51.692;5.196;2024-03-08T09:08:27;32.72;;;16.50;;
84946;SDS011;75241;51.692;5.196;2024-03-08T09:10:53;33.15;;;17.35;;
84946;SDS011;75241;51.692;5.196;2024-03-08T09:13:19;29.33;;;17.75;;
84946;SDS011;75241;51.692;5.196;2024-03-08T09:15:44;34.35;;;18.73;;
84946;SDS011;75241;51.692;5.196;2024-03-08T09:18:10;29.95;;;17.92;;
84946;SDS011;75241;51.692;5.196;2024-03-08T09:20:36;30.10;;;16.90;;
84946;SDS011;75241;51.692;5.196;2024-03-08T09:23:02;29.58;;;16.45;;
84946;SDS011;75241;51.692;5.196;2024-03-08T09:27:54;31.90;;;17.13;;
84946;SDS011;75241;51.692;5.196;2024-03-08T09:30:19;32.30;;;19.02;;
84946;SDS011;75241;51.692;5.196;2024-03-08T09:32:46;31.77;;;17.50;;
84946;SDS011;75241;51.692;5.196;2024-03-08T09:35:12;34.33;;;18.38;;
84946;SDS011;75241;51.692;5.196;2024-03-08T09:37:38;32.67;;;17.98;;
84946;SDS011;75241;51.692;5.196;2024-03-08T09:40:03;30.70;;;18.42;;
84946;SDS011;75241;51.692;5.196;2024-03-08T09:42:34;29.77;;;18.13;;
84946;SDS011;75241;51.692;5.196;2024-03-08T09:45:08;31.02;;;17.40;;
84946;SDS011;75241;51.692;5.196;2024-03-08T09:47:35;28.23;;;16.77;;
84946;SDS011;75241;51.692;5.196;2024-03-08T09:50:05;27.50;;;16.48;;
84946;SDS011;75241;51.692;5.196;2024-03-08T09:52:34;28.65;;;19.05;;
84946;SDS011;75241;51.692;5.196;2024-03-08T09:55:07;25.95;;;16.58;;
84946;SDS011;75241;51.692;5.196;2024-03-08T09:57:36;29.05;;;17.58;;
84946;SDS011;75241;51.692;5.196;2024-03-08T10:00:06;30.92;;;18.02;;
84946;SDS011;75241;51.692;5.196;2024-03-08T10:02:46;30.10;;;17.63;;
84946;SDS011;75241;51.692;5.196;2024-03-08T10:05:12;25.17;;;15.85;;
84946;SDS011;75241;51.692;5.196;2024-03-08T10:07:38;30.92;;;16.95;;
84946;SDS011;75241;51.692;5.196;2024-03-08T10:10:03;26.60;;;16.98;;
84946;SDS011;75241;51.692;5.196;2024-03-08T10:12:30;26.73;;;16.20;;
84946;SDS011;75241;51.692;5.196;2024-03-08T10:14:58;28.25;;;16.08;;
84946;SDS011;75241;51.692;5.196;2024-03-08T10:17:23;27.45;;;15.82;;
84946;SDS011;75241;51.692;5.196;2024-03-08T10:19:49;30.88;;;16.42;;
84946;SDS011;75241;51.692;5.196;2024-03-08T10:22:16;26.60;;;15.07;;
84946;SDS011;75241;51.692;5.196;2024-03-08T10:24:44;23.02;;;15.05;;
84946;SDS011;75241;51.692;5.196;2024-03-08T10:27:12;27.13;;;16.05;;
84946;SDS011;75241;51.692;5.196;2024-03-08T10:29:38;26.48;;;16.90;;
84946;SDS011;75241;51.692;5.196;2024-03-08T10:32:08;26.52;;;15.18;;
84946;SDS011;75241;51.692;5.196;2024-03-08T10:34:34;30.77;;;15.82;;
84946;SDS011;75241;51.692;5.196;2024-03-08T10:37:03;28.33;;;14.77;;
84946;SDS011;75241;51.692;5.196;2024-03-08T10:39:31;26.70;;;15.82;;
84946;SDS011;75241;51.692;5.196;2024-03-08T10:42:02;23.20;;;14.30;;
84946;SDS011;75241;51.692;5.196;2024-03-08T10:47:00;28.88;;;16.52;;
84946;SDS011;75241;51.692;5.196;2024-03-08T10:49:31;27.67;;;15.88;;
84946;SDS011;75241;51.692;5.196;2024-03-08T10:52:18;26.20;;;15.10;;
84946;SDS011;75241;51.692;5.196;2024-03-08T10:54:44;22.05;;;13.95;;
84946;SDS011;75241;51.692;5.196;2024-03-08T10:57:10;22.30;;;14.07;;
84946;SDS011;75241;51.692;5.196;2024-03-08T10:59:37;23.90;;;14.40;;
84946;SDS011;75241;51.692;5.196;2024-03-08T11:02:04;25.88;;;15.20;;
84946;SDS011;75241;51.692;5.196;2024-03-08T11:04:31;24.50;;;14.77;;
84946;SDS011;75241;51.692;5.196;2024-03-08T11:07:02;24.58;;;14.55;;
84946;SDS011;75241;51.692;5.196;2024-03-08T11:09:37;26.20;;;15.15;;
84946;SDS011;75241;51.692;5.196;2024-03-08T11:12:22;24.08;;;14.82;;
84946;SDS011;75241;51.692;5.196;2024-03-08T11:14:56;25.25;;;15.48;;
84946;SDS011;75241;51.692;5.196;2024-03-08T11:19:56;23.35;;;15.15;;
84946;SDS011;75241;51.692;5.196;2024-03-08T11:22:27;24.23;;;15.18;;
84946;SDS011;75241;51.692;5.196;2024-03-08T11:24:59;28.67;;;16.02;;
84946;SDS011;75241;51.692;5.196;2024-03-08T11:27:30;24.92;;;15.73;;
84946;SDS011;75241;51.692;5.196;2024-03-08T11:30:03;24.75;;;15.48;;
84946;SDS011;75241;51.692;5.196;2024-03-08T11:32:36;26.38;;;16.00;;
84946;SDS011;75241;51.692;5.196;2024-03-08T11:35:06;23.65;;;14.43;;
84946;SDS011;75241;51.692;5.196;2024-03-08T11:37:43;25.30;;;15.27;;
84946;SDS011;75241;51.692;5.196;2024-03-08T11:40:13;21.05;;;13.90;;
84946;SDS011;75241;51.692;5.196;2024-03-08T11:42:43;23.23;;;14.60;;
84946;SDS011;75241;51.692;5.196;2024-03-08T11:45:11;25.48;;;15.20;;
84946;SDS011;75241;51.692;5.196;2024-03-08T11:50:05;23.92;;;15.35;;
84946;SDS011;75241;51.692;5.196;2024-03-08T11:52:35;23.30;;;14.20;;
84946;SDS011;75241;51.692;5.196;2024-03-08T11:55:01;22.92;;;13.65;;
84946;SDS011;75241;51.692;5.196;2024-03-08T11:57:28;23.38;;;13.90;;
84946;SDS011;75241;51.692;5.196;2024-03-08T11:59:55;23.27;;;14.23;;
84946;SDS011;75241;51.692;5.196;2024-03-08T12:02:31;23.05;;;14.15;;
84946;SDS011;75241;51.692;5.196;2024-03-08T12:04:57;23.63;;;13.68;;
84946;SDS011;75241;51.692;5.196;2024-03-08T12:07:24;24.75;;;14.50;;
84946;SDS011;75241;51.692;5.196;2024-03-08T12:12:47;21.85;;;12.90;;
84946;SDS011;75241;51.692;5.196;2024-03-08T12:15:19;23.63;;;13.68;;
84946;SDS011;75241;51.692;5.196;2024-03-08T12:17:47;25.20;;;14.15;;
84946;SDS011;75241;51.692;5.196;2024-03-08T12:20:16;20.83;;;14.20;;
84946;SDS011;75241;51.692;5.196;2024-03-08T12:22:43;25.48;;;15.68;;
84946;SDS011;75241;51.692;5.196;2024-03-08T12:27:36;26.40;;;14.55;;
84946;SDS011;75241;51.692;5.196;2024-03-08T12:33:01;23.42;;;15.27;;
84946;SDS011;75241;51.692;5.196;2024-03-08T12:35:28;23.65;;;14.77;;
84946;SDS011;75241;51.692;5.196;2024-03-08T12:40:27;21.58;;;13.07;;
84946;SDS011;75241;51.692;5.196;2024-03-08T12:42:53;21.40;;;14.18;;
84946;SDS011;75241;51.692;5.196;2024-03-08T12:45:20;22.00;;;13.55;;
84946;SDS011;75241;51.692;5.196;2024-03-08T12:47:47;23.45;;;15.30;;
84946;SDS011;75241;51.692;5.196;2024-03-08T12:50:12;22.58;;;15.20;;
84946;SDS011;75241;51.692;5.196;2024-03-08T12:52:38;20.55;;;13.77;;
84946;SDS011;75241;51.692;5.196;2024-03-08T12:55:04;20.38;;;15.00;;
84946;SDS011;75241;51.692;5.196;2024-03-08T12:57:32;23.45;;;14.63;;
84946;SDS011;75241;51.692;5.196;2024-03-08T12:59:59;25.90;;;15.77;;
84946;SDS011;75241;51.692;5.196;2024-03-08T13:02:25;21.58;;;15.13;;
84946;SDS011;75241;51.692;5.196;2024-03-08T13:04:51;22.05;;;14.57;;
84946;SDS011;75241;51.692;5.196;2024-03-08T13:07:22;23.48;;;16.27;;
84946;SDS011;75241;51.692;5.196;2024-03-08T13:09:51;22.65;;;14.48;;
84946;SDS011;75241;51.692;5.196;2024-03-08T13:12:17;23.23;;;14.80;;
84946;SDS011;75241;51.692;5.196;2024-03-08T13:14:45;21.90;;;14.13;;
84946;SDS011;75241;51.692;5.196;2024-03-08T13:17:10;23.80;;;15.98;;
84946;SDS011;75241;51.692;5.196;2024-03-08T13:19:36;21.95;;;15.07;;
84946;SDS011;75241;51.692;5.196;2024-03-08T13:22:03;29.05;;;15.48;;
84946;SDS011;75241;51.692;5.196;2024-03-08T13:24:32;19.15;;;14.20;;
84946;SDS011;75241;51.692;5.196;2024-03-08T13:29:24;22.27;;;14.60;;
84946;SDS011;75241;51.692;5.196;2024-03-08T13:31:50;22.67;;;14.77;;
84946;SDS011;75241;51.692;5.196;2024-03-08T13:34:17;28.15;;;15.90;;
84946;SDS011;75241;51.692;5.196;2024-03-08T13:36:43;23.95;;;16.13;;
84946;SDS011;75241;51.692;5.196;2024-03-08T13:39:10;19.38;;;14.55;;
84946;SDS011;75241;51.692;5.196;2024-03-08T13:41:40;20.80;;;14.27;;
84946;SDS011;75241;51.692;5.196;2024-03-08T13:46:32;19.17;;;13.88;;
84946;SDS011;75241;51.692;5.196;2024-03-08T13:48:58;20.90;;;14.82;;
84946;SDS011;75241;51.692;5.196;2024-03-08T13:51:31;22.45;;;15.52;;
84946;SDS011;75241;51.692;5.196;2024-03-08T13:53:57;21.00;;;14.48;;
84946;SDS011;75241;51.692;5.196;2024-03-08T13:56:23;23.25;;;15.50;;
84946;SDS011;75241;51.692;5.196;2024-03-08T13:58:48;23.98;;;15.38;;
84946;SDS011;75241;51.692;5.196;2024-03-08T14:01:14;22.35;;;15.07;;
84946;SDS011;75241;51.692;5.196;2024-03-08T14:03:41;23.08;;;16.35;;
84946;SDS011;75241;51.692;5.196;2024-03-08T14:06:07;21.23;;;15.00;;
84946;SDS011;75241;51.692;5.196;2024-03-08T14:08:34;27.17;;;16.80;;
84946;SDS011;75241;51.692;5.196;2024-03-08T14:11:02;21.73;;;15.35;;
84946;SDS011;75241;51.692;5.196;2024-03-08T14:13:36;22.92;;;15.07;;
84946;SDS011;75241;51.692;5.196;2024-03-08T14:16:05;21.13;;;14.45;;
84946;SDS011;75241;51.692;5.196;2024-03-08T14:18:34;21.45;;;15.05;;
84946;SDS011;75241;51.692;5.196;2024-03-08T14:20:59;20.20;;;13.93;;
84946;SDS011;75241;51.692;5.196;2024-03-08T14:23:24;21.58;;;14.93;;
84946;SDS011;75241;51.692;5.196;2024-03-08T14:25:52;22.35;;;15.07;;
84946;SDS011;75241;51.692;5.196;2024-03-08T14:28:17;26.00;;;16.60;;
84946;SDS011;75241;51.692;5.196;2024-03-08T14:33:09;20.48;;;14.05;;
84946;SDS011;75241;51.692;5.196;2024-03-08T14:35:35;23.50;;;15.07;;
84946;SDS011;75241;51.692;5.196;2024-03-08T14:38:02;23.35;;;15.63;;
84946;SDS011;75241;51.692;5.196;2024-03-08T14:40:27;22.83;;;15.00;;
84946;SDS011;75241;51.692;5.196;2024-03-08T14:42:55;25.00;;;15.95;;
84946;SDS011;75241;51.692;5.196;2024-03-08T14:45:21;22.92;;;16.73;;
84946;SDS011;75241;51.692;5.196;2024-03-08T14:47:48;25.52;;;15.90;;
84946;SDS011;75241;51.692;5.196;2024-03-08T14:50:18;26.02;;;16.50;;
84946;SDS011;75241;51.692;5.196;2024-03-08T14:52:45;22.05;;;15.27;;
84946;SDS011;75241;51.692;5.196;2024-03-08T14:55:14;24.20;;;15.38;;
84946;SDS011;75241;51.692;5.196;2024-03-08T14:57:41;27.77;;;17.27;;